Time,TemperatureF,DewpointF,PressureIn,WindDirection,WindDirectionDegrees,WindSpeedMPH,WindSpeedGustMPH,Humidity,HourlyPrecipIn,Conditions,Clouds,dailyrainin,SolarRadiationWatts/m^2,SoftwareType,DateUTC
2013-02-22 00:04:00,73.8,69.3,30.07,SE,134,0.0,0.0,86,0.00,,,0.00,0.0,meteohub,2013-02-22 04:04:00,
2013-02-22 00:08:00,73.6,69.1,30.07,SE,134,0.0,0.0,86,0.00,,,0.00,0.0,meteohub,2013-02-22 04:08:00,
2013-02-22 00:14:00,73.6,69.1,30.06,SE,134,0.0,0.0,86,0.00,,,0.00,0.0,meteohub,2013-02-22 04:14:00,
2013-02-22 00:18:00,73.6,69.1,30.06,SE,137,0.0,0.0,86,0.00,,,0.00,0.0,meteohub,2013-02-22 04:18:00,
2013-02-22 00:24:00,73.6,69.4,30.06,SE,134,0.0,0.0,87,0.00,,,0.00,0.0,meteohub,2013-02-22 04:24:00,
2013-02-22 00:29:00,73.2,69.1,30.06,SE,133,0.0,0.0,87,0.00,,,0.00,0.0,meteohub,2013-02-22 04:29:00,
2013-02-22 00:34:00,73.2,69.1,30.06,SE,134,0.0,0.0,87,0.00,,,0.00,0.0,meteohub,2013-02-22 04:34:00,
2013-02-22 00:39:00,73.2,69.1,30.06,SE,133,0.0,0.0,87,0.00,,,0.00,0.0,meteohub,2013-02-22 04:39:00,
2013-02-22 00:44:00,73.2,69.4,30.06,SE,134,0.0,0.0,88,0.00,,,0.00,0.0,meteohub,2013-02-22 04:44:00,
2013-02-22 00:49:00,73.2,69.4,30.06,SE,134,0.0,0.0,88,0.00,,,0.00,0.0,meteohub,2013-02-22 04:49:00,
2013-02-22 00:54:00,73.0,69.3,30.06,SE,134,0.0,0.0,88,0.00,,,0.00,0.0,meteohub,2013-02-22 04:54:00,
2013-02-22 00:59:00,73.0,69.3,30.06,SE,134,0.0,0.0,88,0.00,,,0.00,0.0,meteohub,2013-02-22 04:59:00,
2013-02-22 01:00:00,73.0,69.3,30.06,SE,134,0.0,0.0,88,0.00,,,0.00,0.0,meteohub,2013-02-22 05:00:00,
2013-02-22 01:01:00,73.0,69.3,30.06,SE,134,0.0,0.0,88,0.00,,,0.00,0.0,meteohub,2013-02-22 05:01:00,
2013-02-22 01:06:00,73.0,69.3,30.06,SE,134,0.0,0.0,88,0.00,,,0.00,0.0,meteohub,2013-02-22 05:06:00,
2013-02-22 01:11:00,73.0,69.3,30.06,SE,134,0.0,0.0,88,0.00,,,0.00,0.0,meteohub,2013-02-22 05:11:00,
2013-02-22 01:16:00,72.9,69.1,30.05,SE,133,0.0,0.0,88,0.00,,,0.00,0.0,meteohub,2013-02-22 05:16:00,
2013-02-22 01:21:00,72.9,69.1,30.05,SE,134,0.0,0.0,88,0.00,,,0.00,0.0,meteohub,2013-02-22 05:21:00,
2013-02-22 01:26:00,72.7,68.9,30.05,SE,134,0.0,0.0,88,0.00,,,0.00,0.0,meteohub,2013-02-22 05:26:00,
2013-02-22 01:31:00,72.5,69.1,30.05,SE,134,0.0,0.0,89,0.00,,,0.00,0.0,meteohub,2013-02-22 05:31:00,
2013-02-22 01:36:00,72.3,69.3,30.05,SE,134,0.0,0.0,90,0.00,,,0.00,0.0,meteohub,2013-02-22 05:36:00,
2013-02-22 01:41:00,72.3,69.3,30.05,SE,133,0.0,0.0,90,0.00,,,0.00,0.0,meteohub,2013-02-22 05:41:00,
2013-02-22 01:47:00,72.3,69.3,30.04,SE,134,0.0,0.0,90,0.00,,,0.00,0.0,meteohub,2013-02-22 05:47:00,
2013-02-22 01:52:00,72.3,69.3,30.04,SE,134,0.0,0.0,90,0.00,,,0.00,0.0,meteohub,2013-02-22 05:52:00,
2013-02-22 01:57:00,72.3,69.3,30.04,SE,134,0.0,0.0,90,0.00,,,0.00,0.0,meteohub,2013-02-22 05:57:00,
2013-02-22 02:02:00,72.3,69.3,30.04,SE,134,0.0,0.0,90,0.00,,,0.00,0.0,meteohub,2013-02-22 06:02:00,
2013-02-22 02:07:00,72.3,69.3,30.04,SE,133,0.0,0.0,90,0.00,,,0.00,0.0,meteohub,2013-02-22 06:07:00,
2013-02-22 02:12:00,72.1,69.4,30.04,SE,134,0.0,0.0,91,0.00,,,0.00,0.0,meteohub,2013-02-22 06:12:00,
2013-02-22 02:17:00,72.1,69.4,30.03,SE,134,0.0,0.0,91,0.00,,,0.00,0.0,meteohub,2013-02-22 06:17:00,
2013-02-22 02:22:00,72.1,69.4,30.03,SE,134,0.0,0.0,91,0.00,,,0.00,0.0,meteohub,2013-02-22 06:22:00,
2013-02-22 02:27:00,72.3,69.6,30.03,SE,134,0.0,0.0,91,0.00,,,0.00,0.0,meteohub,2013-02-22 06:27:00,
2013-02-22 02:32:00,72.1,69.6,30.02,SE,134,0.0,0.0,92,0.00,,,0.00,0.0,meteohub,2013-02-22 06:32:00,
2013-02-22 02:37:00,72.1,69.6,30.02,SE,134,0.0,0.0,92,0.00,,,0.00,0.0,meteohub,2013-02-22 06:37:00,
2013-02-22 02:42:00,72.0,69.4,30.02,SE,134,0.0,0.0,92,0.00,,,0.00,0.0,meteohub,2013-02-22 06:42:00,
2013-02-22 02:47:00,72.0,69.4,30.02,SE,134,0.0,0.0,92,0.00,,,0.00,0.0,meteohub,2013-02-22 06:47:00,
2013-02-22 02:52:00,71.8,69.3,30.02,SE,134,0.0,0.0,92,0.00,,,0.00,0.0,meteohub,2013-02-22 06:52:00,
2013-02-22 02:57:00,71.8,69.3,30.02,SE,134,0.0,0.0,92,0.00,,,0.00,0.0,meteohub,2013-02-22 06:57:00,
2013-02-22 03:02:00,71.6,69.1,30.01,SE,134,0.0,0.0,92,0.00,,,0.00,0.0,meteohub,2013-02-22 07:02:00,
2013-02-22 03:07:00,71.6,69.4,30.01,SE,134,0.0,0.0,93,0.00,,,0.00,0.0,meteohub,2013-02-22 07:07:00,
2013-02-22 03:12:00,71.6,69.4,30.01,SE,137,0.0,0.0,93,0.00,,,0.00,0.0,meteohub,2013-02-22 07:12:00,
2013-02-22 03:17:00,71.4,69.3,30.01,SE,134,0.0,0.0,93,0.00,,,0.00,0.0,meteohub,2013-02-22 07:17:00,
2013-02-22 03:22:00,71.4,69.3,30.01,SE,134,0.0,0.0,93,0.00,,,0.00,0.0,meteohub,2013-02-22 07:22:00,
2013-02-22 03:27:00,71.4,69.3,30.01,SE,134,0.0,0.0,93,0.00,,,0.00,0.0,meteohub,2013-02-22 07:27:00,
2013-02-22 03:32:00,71.6,69.4,30.01,SE,134,0.0,0.0,93,0.00,,,0.00,0.0,meteohub,2013-02-22 07:32:00,
2013-02-22 03:37:00,71.4,69.3,30.01,SE,134,0.0,0.0,93,0.00,,,0.00,0.0,meteohub,2013-02-22 07:37:00,
2013-02-22 03:43:00,71.4,69.3,30.01,SE,133,0.0,0.0,93,0.00,,,0.00,0.0,meteohub,2013-02-22 07:43:00,
2013-02-22 03:48:00,71.2,69.1,30.01,SE,134,0.0,0.0,93,0.00,,,0.00,0.0,meteohub,2013-02-22 07:48:00,
2013-02-22 03:53:00,71.1,68.9,30.01,SE,134,0.0,0.0,93,0.00,,,0.00,0.0,meteohub,2013-02-22 07:53:00,
2013-02-22 03:58:00,70.9,68.7,30.01,SE,134,0.0,0.0,93,0.00,,,0.00,0.0,meteohub,2013-02-22 07:58:00,
2013-02-22 04:03:00,70.9,68.7,30.01,SE,133,0.0,0.0,93,0.00,,,0.00,0.0,meteohub,2013-02-22 08:03:00,
2013-02-22 04:08:00,70.9,68.7,30.01,SE,134,0.0,0.0,93,0.00,,,0.00,0.0,meteohub,2013-02-22 08:08:00,
2013-02-22 04:13:00,70.9,69.1,30.01,SE,134,0.0,0.0,94,0.00,,,0.00,0.0,meteohub,2013-02-22 08:13:00,
2013-02-22 04:18:00,70.9,69.1,30.01,SE,134,0.0,0.0,94,0.00,,,0.00,0.0,meteohub,2013-02-22 08:18:00,
2013-02-22 04:23:00,70.9,69.1,30.01,SE,136,0.0,0.0,94,0.00,,,0.00,0.0,meteohub,2013-02-22 08:23:00,
2013-02-22 04:28:00,70.9,69.1,30.01,SE,134,0.0,0.0,94,0.00,,,0.00,0.0,meteohub,2013-02-22 08:28:00,
2013-02-22 04:33:00,70.9,69.1,30.01,SE,136,0.0,0.0,94,0.00,,,0.00,0.0,meteohub,2013-02-22 08:33:00,
2013-02-22 04:38:00,70.9,69.1,30.01,SE,134,0.0,0.0,94,0.00,,,0.00,0.0,meteohub,2013-02-22 08:38:00,
2013-02-22 04:43:00,70.5,68.7,30.02,SE,134,0.0,0.0,94,0.00,,,0.00,0.0,meteohub,2013-02-22 08:43:00,
2013-02-22 04:48:00,70.5,68.7,30.02,SE,136,0.0,0.0,94,0.00,,,0.00,0.0,meteohub,2013-02-22 08:48:00,
2013-02-22 04:53:00,70.5,68.7,30.02,SE,137,0.0,0.0,94,0.00,,,0.00,0.0,meteohub,2013-02-22 08:53:00,
2013-02-22 04:58:00,70.5,68.7,30.02,SE,134,0.0,0.0,94,0.00,,,0.00,0.0,meteohub,2013-02-22 08:58:00,
2013-02-22 05:04:00,70.5,68.7,30.02,SE,134,0.0,0.0,94,0.00,,,0.00,0.0,meteohub,2013-02-22 09:04:00,
2013-02-22 05:09:00,70.3,68.5,30.02,SE,134,0.0,0.0,94,0.00,,,0.00,0.0,meteohub,2013-02-22 09:09:00,
2013-02-22 05:14:00,70.3,68.5,30.02,SE,136,0.0,0.0,94,0.00,,,0.00,0.0,meteohub,2013-02-22 09:14:00,
2013-02-22 05:19:00,70.3,68.5,30.02,SE,136,0.0,0.0,94,0.00,,,0.00,0.0,meteohub,2013-02-22 09:19:00,
2013-02-22 05:24:00,70.2,68.4,30.02,SE,133,0.0,0.0,94,0.00,,,0.00,0.0,meteohub,2013-02-22 09:24:00,
2013-02-22 05:29:00,70.3,68.5,30.03,SE,128,0.0,0.0,94,0.00,,,0.00,0.0,meteohub,2013-02-22 09:29:00,
2013-02-22 05:34:00,70.2,68.4,30.03,SE,136,0.0,0.0,94,0.00,,,0.00,0.0,meteohub,2013-02-22 09:34:00,
2013-02-22 05:39:00,70.0,68.2,30.03,SE,134,0.0,0.0,94,0.00,,,0.00,0.0,meteohub,2013-02-22 09:39:00,
2013-02-22 05:44:00,70.0,68.2,30.03,SE,133,0.0,0.0,94,0.00,,,0.00,0.0,meteohub,2013-02-22 09:44:00,
2013-02-22 05:49:00,70.2,68.4,30.03,SE,134,0.0,0.0,94,0.00,,,0.00,0.0,meteohub,2013-02-22 09:49:00,
2013-02-22 05:54:00,70.0,68.2,30.03,SE,134,0.0,0.0,94,0.00,,,0.00,0.0,meteohub,2013-02-22 09:54:00,
2013-02-22 05:59:00,70.0,68.2,30.04,SE,134,0.0,0.0,94,0.00,,,0.00,0.0,meteohub,2013-02-22 09:59:00,
2013-02-22 06:04:00,70.0,68.2,30.04,SE,134,0.0,0.0,94,0.00,,,0.00,0.0,meteohub,2013-02-22 10:04:00,
2013-02-22 06:10:00,70.0,68.2,30.04,SE,134,0.0,0.0,94,0.00,,,0.00,0.0,meteohub,2013-02-22 10:10:00,
2013-02-22 06:15:00,70.0,68.2,30.04,SE,133,0.0,0.0,94,0.00,,,0.00,0.0,meteohub,2013-02-22 10:15:00,
2013-02-22 06:20:00,70.0,68.2,30.04,SE,134,0.0,0.0,94,0.00,,,0.00,0.0,meteohub,2013-02-22 10:20:00,
2013-02-22 06:25:00,70.0,68.2,30.04,SE,134,0.0,0.0,94,0.00,,,0.00,0.0,meteohub,2013-02-22 10:25:00,
2013-02-22 06:30:00,70.0,68.2,30.04,SE,133,0.0,0.0,94,0.00,,,0.00,0.0,meteohub,2013-02-22 10:30:00,
2013-02-22 06:35:00,70.0,68.2,30.04,SE,134,0.0,0.0,94,0.00,,,0.00,0.0,meteohub,2013-02-22 10:35:00,
2013-02-22 06:40:00,70.0,68.2,30.04,SE,134,0.0,0.0,94,0.00,,,0.00,0.0,meteohub,2013-02-22 10:40:00,
2013-02-22 06:45:00,69.8,68.0,30.05,SE,134,0.0,0.0,94,0.00,,,0.00,0.0,meteohub,2013-02-22 10:45:00,
2013-02-22 06:50:00,70.0,68.2,30.05,SE,134,0.0,0.0,94,0.00,,,0.00,0.0,meteohub,2013-02-22 10:50:00,
2013-02-22 06:55:00,70.0,68.2,30.05,SE,137,0.0,0.0,94,0.00,,,0.00,5.0,meteohub,2013-02-22 10:55:00,
2013-02-22 07:00:00,70.0,68.2,30.05,SE,134,0.0,0.0,94,0.00,,,0.00,7.0,meteohub,2013-02-22 11:00:00,
2013-02-22 07:05:00,70.0,68.2,30.05,SE,134,0.0,0.0,94,0.00,,,0.00,18.0,meteohub,2013-02-22 11:05:00,
2013-02-22 07:10:00,70.0,68.2,30.05,SE,134,0.0,0.0,94,0.00,,,0.00,33.0,meteohub,2013-02-22 11:10:00,
2013-02-22 07:15:00,70.2,68.4,30.05,SE,134,0.0,0.0,94,0.00,,,0.00,32.0,meteohub,2013-02-22 11:15:00,
2013-02-22 07:20:00,70.3,68.5,30.05,SE,134,0.0,0.0,94,0.00,,,0.00,32.0,meteohub,2013-02-22 11:20:00,
2013-02-22 07:25:00,70.3,68.2,30.05,SE,134,0.0,0.0,93,0.00,,,0.00,88.0,meteohub,2013-02-22 11:25:00,
2013-02-22 07:30:00,70.9,68.7,30.06,SE,134,0.0,0.0,93,0.00,,,0.00,113.0,meteohub,2013-02-22 11:30:00,
2013-02-22 07:35:00,71.1,68.9,30.06,SE,134,0.0,0.0,93,0.00,,,0.00,79.0,meteohub,2013-02-22 11:35:00,
2013-02-22 07:40:00,71.6,69.1,30.06,SE,134,0.0,0.0,92,0.00,,,0.00,56.0,meteohub,2013-02-22 11:40:00,
2013-02-22 07:45:00,71.8,69.3,30.06,SE,134,0.0,0.0,92,0.00,,,0.00,56.0,meteohub,2013-02-22 11:45:00,
2013-02-22 07:50:00,72.1,69.4,30.06,SE,134,0.0,0.0,91,0.00,,,0.00,70.0,meteohub,2013-02-22 11:50:00,
2013-02-22 07:55:00,72.7,69.6,30.06,SE,134,0.0,0.0,90,0.00,,,0.00,153.0,meteohub,2013-02-22 11:55:00,
2013-02-22 08:00:00,73.0,69.6,30.07,SE,134,0.0,0.0,89,0.00,,,0.00,253.0,meteohub,2013-02-22 12:00:00,
2013-02-22 08:05:00,73.6,69.8,30.07,SE,134,0.0,0.0,88,0.00,,,0.00,250.0,meteohub,2013-02-22 12:05:00,
2013-02-22 08:10:00,74.1,70.0,30.07,SE,134,0.0,0.0,87,0.00,,,0.00,155.0,meteohub,2013-02-22 12:10:00,
2013-02-22 08:15:00,74.7,69.8,30.08,SE,134,0.0,0.0,85,0.00,,,0.00,350.0,meteohub,2013-02-22 12:15:00,
2013-02-22 08:20:00,75.4,70.2,30.08,SE,134,0.0,0.0,84,0.00,,,0.00,311.0,meteohub,2013-02-22 12:20:00,
2013-02-22 08:25:00,75.9,70.0,30.08,SE,134,0.0,0.0,82,0.00,,,0.00,329.0,meteohub,2013-02-22 12:25:00,
2013-02-22 08:30:00,76.5,69.8,30.08,SE,134,0.0,0.0,80,0.00,,,0.00,348.0,meteohub,2013-02-22 12:30:00,
2013-02-22 08:35:00,77.2,70.2,30.08,SE,134,0.0,1.0,79,0.00,,,0.00,368.0,meteohub,2013-02-22 12:35:00,
2013-02-22 08:40:00,77.5,70.2,30.08,SE,134,0.0,1.0,78,0.00,,,0.00,387.0,meteohub,2013-02-22 12:40:00,
2013-02-22 08:45:00,78.1,70.3,30.09,SE,134,0.0,1.0,77,0.00,,,0.00,410.0,meteohub,2013-02-22 12:45:00,
2013-02-22 08:50:00,78.4,70.2,30.09,SE,134,0.0,5.0,76,0.00,,,0.00,429.0,meteohub,2013-02-22 12:50:00,
2013-02-22 08:55:00,78.6,70.9,30.09,SE,137,0.0,5.0,77,0.00,,,0.00,445.0,meteohub,2013-02-22 12:55:00,
2013-02-22 09:01:00,79.0,71.1,30.09,ESE,109,0.0,5.0,77,0.00,,,0.00,461.0,meteohub,2013-02-22 13:01:00,
2013-02-22 09:05:00,79.3,71.1,30.09,ESE,116,0.0,6.0,76,0.00,,,0.00,480.0,meteohub,2013-02-22 13:05:00,
2013-02-22 09:11:00,79.5,71.2,30.09,East,86,0.0,13.0,76,0.00,,,0.00,503.0,meteohub,2013-02-22 13:11:00,
2013-02-22 09:15:00,79.9,71.2,30.10,East,100,3.0,13.0,75,0.00,,,0.00,523.0,meteohub,2013-02-22 13:15:00,
2013-02-22 09:21:00,79.9,71.2,30.10,East,96,0.0,13.0,75,0.00,,,0.00,551.0,meteohub,2013-02-22 13:21:00,
2013-02-22 09:26:00,80.1,71.1,30.10,ESE,109,0.0,10.0,74,0.00,,,0.00,561.0,meteohub,2013-02-22 13:26:00,
2013-02-22 09:31:00,80.4,71.4,30.10,East,89,4.0,10.0,74,0.00,,,0.00,589.0,meteohub,2013-02-22 13:31:00,
2013-02-22 09:36:00,80.4,70.9,30.10,East,100,0.0,10.0,73,0.00,,,0.00,605.0,meteohub,2013-02-22 13:36:00,
2013-02-22 09:41:00,80.2,70.9,30.10,SE,130,0.0,10.0,73,0.00,,,0.00,153.0,meteohub,2013-02-22 13:41:00,
2013-02-22 09:46:00,79.9,70.5,30.11,ESE,104,6.0,12.0,73,0.00,,,0.00,197.0,meteohub,2013-02-22 13:46:00,
2013-02-22 09:51:00,79.5,70.5,30.11,ESE,123,0.0,12.0,74,0.00,,,0.00,192.0,meteohub,2013-02-22 13:51:00,
2013-02-22 09:56:00,79.9,70.9,30.11,ESE,103,7.0,12.0,74,0.00,,,0.00,243.0,meteohub,2013-02-22 13:56:00,
2013-02-22 10:01:00,81.0,71.4,30.11,East,99,6.0,11.0,73,0.00,,,0.00,779.0,meteohub,2013-02-22 14:01:00,
2013-02-22 10:06:00,81.1,71.2,30.11,East,89,8.0,12.0,72,0.00,,,0.00,183.0,meteohub,2013-02-22 14:06:00,
2013-02-22 10:11:00,81.1,71.6,30.11,East,100,2.0,12.0,73,0.00,,,0.00,815.0,meteohub,2013-02-22 14:11:00,
2013-02-22 10:16:00,82.0,72.1,30.11,SE,131,0.0,12.0,72,0.00,,,0.00,864.0,meteohub,2013-02-22 14:16:00,
2013-02-22 10:21:00,82.6,71.8,30.11,NE,48,4.0,10.0,70,0.00,,,0.00,656.0,meteohub,2013-02-22 14:21:00,
2013-02-22 10:26:00,82.9,71.8,30.11,NE,44,0.0,12.0,69,0.00,,,0.00,878.0,meteohub,2013-02-22 14:26:00,
2013-02-22 10:31:00,83.1,72.0,30.11,SE,127,0.0,12.0,69,0.00,,,0.00,950.0,meteohub,2013-02-22 14:31:00,
2013-02-22 10:36:00,83.5,71.8,30.11,SE,127,0.0,12.0,68,0.00,,,0.00,906.0,meteohub,2013-02-22 14:36:00,
2013-02-22 10:41:00,83.7,71.6,30.11,East,80,1.0,11.0,67,0.00,,,0.00,918.0,meteohub,2013-02-22 14:41:00,
2013-02-22 10:46:00,84.0,71.4,30.11,ENE,71,7.0,12.0,66,0.00,,,0.00,897.0,meteohub,2013-02-22 14:46:00,
2013-02-22 10:51:00,84.6,71.1,30.11,SE,127,0.0,12.0,64,0.00,,,0.00,894.0,meteohub,2013-02-22 14:51:00,
2013-02-22 10:56:00,85.1,72.0,30.11,East,96,2.0,12.0,65,0.00,,,0.00,883.0,meteohub,2013-02-22 14:56:00,
2013-02-22 11:02:00,84.7,70.7,30.11,East,97,0.0,12.0,63,0.00,,,0.00,1035.0,meteohub,2013-02-22 15:02:00,
2013-02-22 11:07:00,84.0,71.1,30.11,East,79,3.0,12.0,65,0.00,,,0.00,1017.0,meteohub,2013-02-22 15:07:00,
2013-02-22 11:12:00,84.4,72.1,30.11,ENE,72,3.0,12.0,67,0.00,,,0.00,973.0,meteohub,2013-02-22 15:12:00,
2013-02-22 11:17:00,83.8,72.1,30.10,NE,48,7.0,14.0,68,0.00,,,0.00,318.0,meteohub,2013-02-22 15:17:00,
2013-02-22 11:22:00,83.8,72.1,30.10,ESE,109,8.0,14.0,68,0.00,,,0.00,368.0,meteohub,2013-02-22 15:22:00,
2013-02-22 11:27:00,83.8,72.1,30.10,East,90,11.0,14.0,68,0.00,,,0.00,320.0,meteohub,2013-02-22 15:27:00,
2013-02-22 11:32:00,82.9,72.1,30.10,ENE,64,6.0,15.0,70,0.00,,,0.00,271.0,meteohub,2013-02-22 15:32:00,
2013-02-22 11:37:00,82.6,71.8,30.10,NNE,24,9.0,15.0,70,0.00,,,0.00,259.0,meteohub,2013-02-22 15:37:00,
2013-02-22 11:42:00,82.2,72.0,30.10,NNE,31,0.0,16.0,71,0.00,,,0.00,324.0,meteohub,2013-02-22 15:42:00,
2013-02-22 11:47:00,82.2,72.3,30.10,ENE,69,11.0,16.0,72,0.00,,,0.00,324.0,meteohub,2013-02-22 15:47:00,
2013-02-22 11:52:00,82.0,72.1,30.10,East,83,10.0,16.0,72,0.00,,,0.00,294.0,meteohub,2013-02-22 15:52:00,
2013-02-22 11:57:00,81.9,72.0,30.10,East,93,10.0,16.0,72,0.00,,,0.00,230.0,meteohub,2013-02-22 15:57:00,
2013-02-22 12:02:00,81.9,72.3,30.09,ESE,119,6.0,16.0,73,0.00,,,0.00,220.0,meteohub,2013-02-22 16:02:00,
2013-02-22 12:07:00,81.3,71.8,30.09,NE,49,8.0,16.0,73,0.00,,,0.00,195.0,meteohub,2013-02-22 16:07:00,
2013-02-22 12:12:00,81.1,72.5,30.09,NNE,25,6.0,17.0,75,0.00,,,0.00,262.0,meteohub,2013-02-22 16:12:00,
2013-02-22 12:17:00,81.1,72.9,30.09,NE,56,14.0,17.0,76,0.00,,,0.00,338.0,meteohub,2013-02-22 16:17:00,
2013-02-22 12:22:00,81.1,72.9,30.09,East,83,9.0,18.0,76,0.00,,,0.00,355.0,meteohub,2013-02-22 16:22:00,
2013-02-22 12:27:00,81.7,73.0,30.09,ENE,69,13.0,18.0,75,0.00,,,0.00,283.0,meteohub,2013-02-22 16:27:00,
2013-02-22 12:32:00,82.4,72.9,30.08,NE,54,12.0,18.0,73,0.00,,,0.00,1105.0,meteohub,2013-02-22 16:32:00,
2013-02-22 12:37:00,82.8,72.3,30.08,NE,48,11.0,17.0,71,0.00,,,0.00,1005.0,meteohub,2013-02-22 16:37:00,
2013-02-22 12:42:00,83.5,72.7,30.08,NE,40,6.0,17.0,70,0.00,,,0.00,1005.0,meteohub,2013-02-22 16:42:00,
2013-02-22 12:48:00,83.7,72.3,30.08,NE,56,8.0,17.0,69,0.00,,,0.00,836.0,meteohub,2013-02-22 16:48:00,
2013-02-22 12:53:00,84.0,72.7,30.08,NNE,28,12.0,17.0,69,0.00,,,0.00,1049.0,meteohub,2013-02-22 16:53:00,
2013-02-22 12:58:00,84.6,73.2,30.08,NE,52,10.0,18.0,69,0.00,,,0.00,1033.0,meteohub,2013-02-22 16:58:00,
2013-02-22 13:03:00,84.0,72.7,30.08,NE,51,7.0,18.0,69,0.00,,,0.00,896.0,meteohub,2013-02-22 17:03:00,
2013-02-22 13:08:00,84.0,72.0,30.08,ENE,61,11.0,18.0,67,0.00,,,0.00,347.0,meteohub,2013-02-22 17:08:00,
2013-02-22 13:13:00,83.8,72.5,30.07,East,90,2.0,17.0,69,0.00,,,0.00,238.0,meteohub,2013-02-22 17:13:00,
2013-02-22 13:18:00,83.1,72.7,30.07,NE,35,6.0,15.0,71,0.00,,,0.00,384.0,meteohub,2013-02-22 17:18:00,
2013-02-22 13:23:00,83.8,72.5,30.07,East,82,12.0,14.0,69,0.00,,,0.00,466.0,meteohub,2013-02-22 17:23:00,
2013-02-22 13:28:00,84.0,72.3,30.07,NE,55,7.0,16.0,68,0.00,,,0.00,940.0,meteohub,2013-02-22 17:28:00,
2013-02-22 13:33:00,84.6,71.4,30.07,SE,128,3.0,16.0,65,0.00,,,0.00,885.0,meteohub,2013-02-22 17:33:00,
2013-02-22 13:38:00,84.6,71.4,30.07,ESE,103,7.0,16.0,65,0.00,,,0.00,892.0,meteohub,2013-02-22 17:38:00,
2013-02-22 13:43:00,84.6,71.4,30.06,NE,38,6.0,16.0,65,0.00,,,0.00,922.0,meteohub,2013-02-22 17:43:00,
2013-02-22 13:48:00,84.7,73.0,30.06,NE,49,6.0,17.0,68,0.00,,,0.00,966.0,meteohub,2013-02-22 17:48:00,
2013-02-22 13:53:00,84.6,72.9,30.06,North,6,8.0,17.0,68,0.00,,,0.00,1022.0,meteohub,2013-02-22 17:53:00,
2013-02-22 13:58:00,84.0,72.3,30.06,NNE,25,12.0,19.0,68,0.00,,,0.00,417.0,meteohub,2013-02-22 17:58:00,
2013-02-22 14:03:00,84.0,72.7,30.06,NE,48,11.0,19.0,69,0.00,,,0.00,904.0,meteohub,2013-02-22 18:03:00,
2013-02-22 14:08:00,84.4,73.0,30.06,NE,55,7.0,17.0,69,0.00,,,0.00,915.0,meteohub,2013-02-22 18:08:00,
2013-02-22 14:13:00,84.0,73.2,30.05,ENE,78,0.0,17.0,70,0.00,,,0.00,915.0,meteohub,2013-02-22 18:13:00,
2013-02-22 14:18:00,84.0,73.6,30.05,East,82,7.0,16.0,71,0.00,,,0.00,962.0,meteohub,2013-02-22 18:18:00,
2013-02-22 14:23:00,84.4,73.6,30.05,East,80,5.0,16.0,70,0.00,,,0.00,238.0,meteohub,2013-02-22 18:23:00,
2013-02-22 14:28:00,84.6,73.8,30.05,ENE,76,6.0,16.0,70,0.00,,,0.00,913.0,meteohub,2013-02-22 18:28:00,
2013-02-22 14:33:00,84.0,73.6,30.05,NNE,14,7.0,17.0,71,0.00,,,0.00,320.0,meteohub,2013-02-22 18:33:00,
2013-02-22 14:38:00,83.8,73.4,30.05,NE,56,14.0,17.0,71,0.00,,,0.00,874.0,meteohub,2013-02-22 18:38:00,
2013-02-22 14:43:00,83.8,72.5,30.04,NE,51,7.0,18.0,69,0.00,,,0.00,866.0,meteohub,2013-02-22 18:43:00,
2013-02-22 14:48:00,83.8,72.5,30.04,ESE,102,10.0,19.0,69,0.00,,,0.00,809.0,meteohub,2013-02-22 18:48:00,
2013-02-22 14:53:00,84.0,72.3,30.04,NE,45,4.0,19.0,68,0.00,,,0.00,760.0,meteohub,2013-02-22 18:53:00,
2013-02-22 14:58:00,84.4,72.7,30.04,East,100,6.0,19.0,68,0.00,,,0.00,765.0,meteohub,2013-02-22 18:58:00,
2013-02-22 15:03:00,84.6,73.8,30.04,ENE,73,7.0,16.0,70,0.00,,,0.00,720.0,meteohub,2013-02-22 19:03:00,
2013-02-22 15:08:00,84.4,73.0,30.04,East,89,10.0,14.0,69,0.00,,,0.00,728.0,meteohub,2013-02-22 19:08:00,
2013-02-22 15:13:00,84.0,72.0,30.03,East,100,8.0,15.0,67,0.00,,,0.00,150.0,meteohub,2013-02-22 19:13:00,
2013-02-22 15:18:00,84.0,72.3,30.03,ENE,78,6.0,15.0,68,0.00,,,0.00,723.0,meteohub,2013-02-22 19:18:00,
2013-02-22 15:23:00,84.0,72.3,30.03,East,92,0.0,15.0,68,0.00,,,0.00,714.0,meteohub,2013-02-22 19:23:00,
2013-02-22 15:28:00,83.8,72.1,30.02,ENE,69,7.0,13.0,68,0.00,,,0.00,656.0,meteohub,2013-02-22 19:28:00,
2013-02-22 15:33:00,84.0,72.7,30.02,East,80,6.0,14.0,69,0.00,,,0.00,618.0,meteohub,2013-02-22 19:33:00,
2013-02-22 15:38:00,84.0,72.7,30.02,NE,49,3.0,14.0,69,0.00,,,0.00,632.0,meteohub,2013-02-22 19:38:00,
2013-02-22 15:43:00,83.8,72.5,30.02,NE,49,6.0,19.0,69,0.00,,,0.00,135.0,meteohub,2013-02-22 19:43:00,
2013-02-22 15:48:00,83.7,72.3,30.02,ENE,75,5.0,19.0,69,0.00,,,0.00,600.0,meteohub,2013-02-22 19:48:00,
2013-02-22 15:53:00,83.5,72.7,30.02,East,86,12.0,19.0,70,0.00,,,0.00,568.0,meteohub,2013-02-22 19:53:00,
2013-02-22 15:58:00,83.7,72.3,30.02,ENE,69,0.0,18.0,69,0.00,,,0.00,549.0,meteohub,2013-02-22 19:58:00,
2013-02-22 16:03:00,83.8,72.5,30.02,ENE,75,8.0,18.0,69,0.00,,,0.00,556.0,meteohub,2013-02-22 20:03:00,
2013-02-22 16:08:00,83.7,72.9,30.02,NE,35,10.0,18.0,70,0.00,,,0.00,531.0,meteohub,2013-02-22 20:08:00,
2013-02-22 16:14:00,83.1,72.3,30.02,ENE,58,13.0,17.0,70,0.00,,,0.00,517.0,meteohub,2013-02-22 20:14:00,
2013-02-22 16:18:00,83.1,72.7,30.02,ENE,72,10.0,17.0,71,0.00,,,0.00,463.0,meteohub,2013-02-22 20:18:00,
2013-02-22 16:24:00,82.8,72.3,30.02,ENE,71,9.0,17.0,71,0.00,,,0.00,116.0,meteohub,2013-02-22 20:24:00,
2013-02-22 16:29:00,82.6,72.7,30.02,ESE,103,10.0,15.0,72,0.00,,,0.00,487.0,meteohub,2013-02-22 20:29:00,
2013-02-22 16:34:00,82.2,72.7,30.02,East,89,6.0,14.0,73,0.00,,,0.00,417.0,meteohub,2013-02-22 20:34:00,
2013-02-22 16:39:00,82.2,73.0,30.02,NE,35,13.0,14.0,74,0.00,,,0.00,412.0,meteohub,2013-02-22 20:39:00,
2013-02-22 16:44:00,81.9,72.3,30.02,East,79,13.0,19.0,73,0.00,,,0.00,90.0,meteohub,2013-02-22 20:44:00,
2013-02-22 16:49:00,81.3,71.8,30.02,NE,56,7.0,19.0,73,0.00,,,0.00,172.0,meteohub,2013-02-22 20:49:00,
2013-02-22 16:54:00,81.1,71.6,30.02,ENE,66,4.0,19.0,73,0.00,,,0.00,139.0,meteohub,2013-02-22 20:54:00,
2013-02-22 16:59:00,81.1,71.6,30.02,East,79,7.0,17.0,73,0.00,,,0.00,91.0,meteohub,2013-02-22 20:59:00,
2013-02-22 17:04:00,81.1,72.1,30.02,East,90,8.0,17.0,74,0.00,,,0.00,72.0,meteohub,2013-02-22 21:04:00,
2013-02-22 17:09:00,81.0,71.4,30.02,SE,126,3.0,17.0,73,0.00,,,0.00,83.0,meteohub,2013-02-22 21:09:00,
2013-02-22 17:14:00,81.1,72.1,30.02,East,95,6.0,17.0,74,0.00,,,0.00,63.0,meteohub,2013-02-22 21:14:00,
2013-02-22 17:19:00,81.0,72.0,30.02,ENE,78,3.0,16.0,74,0.00,,,0.00,83.0,meteohub,2013-02-22 21:19:00,
2013-02-22 17:24:00,80.4,71.4,30.02,East,92,9.0,16.0,74,0.00,,,0.00,53.0,meteohub,2013-02-22 21:24:00,
2013-02-22 17:29:00,80.2,71.6,30.02,ESE,102,10.0,18.0,75,0.00,,,0.00,63.0,meteohub,2013-02-22 21:29:00,
2013-02-22 17:34:00,80.2,72.0,30.02,East,99,10.0,18.0,76,0.00,,,0.00,81.0,meteohub,2013-02-22 21:34:00,
2013-02-22 17:39:00,80.1,71.8,30.02,ENE,72,8.0,14.0,76,0.00,,,0.00,56.0,meteohub,2013-02-22 21:39:00,
2013-02-22 17:44:00,79.9,71.6,30.02,ENE,59,7.0,14.0,76,0.00,,,0.00,51.0,meteohub,2013-02-22 21:44:00,
2013-02-22 17:50:00,79.9,72.0,30.02,ENE,78,0.0,16.0,77,0.00,,,0.00,39.0,meteohub,2013-02-22 21:50:00,
2013-02-22 17:55:00,79.5,71.6,30.02,East,85,2.0,16.0,77,0.00,,,0.00,37.0,meteohub,2013-02-22 21:55:00,
2013-02-22 18:00:00,79.5,71.6,30.03,ENE,75,3.0,13.0,77,0.00,,,0.00,32.0,meteohub,2013-02-22 22:00:00,
2013-02-22 18:05:00,79.5,72.1,30.03,ESE,114,6.0,13.0,78,0.00,,,0.00,26.0,meteohub,2013-02-22 22:05:00,
2013-02-22 18:10:00,79.3,72.0,30.03,East,83,6.0,13.0,78,0.00,,,0.00,18.0,meteohub,2013-02-22 22:10:00,
2013-02-22 18:15:00,79.0,71.6,30.03,ENE,68,3.0,13.0,78,0.00,,,0.00,14.0,meteohub,2013-02-22 22:15:00,
2013-02-22 18:20:00,79.0,72.0,30.03,East,88,11.0,14.0,79,0.00,,,0.00,11.0,meteohub,2013-02-22 22:20:00,
2013-02-22 18:25:00,79.0,72.0,30.03,ENE,66,2.0,14.0,79,0.00,,,0.00,5.0,meteohub,2013-02-22 22:25:00,
2013-02-22 18:30:00,79.0,72.0,30.03,ESE,116,0.0,14.0,79,0.00,,,0.00,0.0,meteohub,2013-02-22 22:30:00,
2013-02-22 18:35:00,78.8,72.1,30.03,NE,52,0.0,12.0,80,0.00,,,0.00,0.0,meteohub,2013-02-22 22:35:00,
2013-02-22 18:40:00,78.8,72.1,30.03,NE,44,7.0,12.0,80,0.00,,,0.00,0.0,meteohub,2013-02-22 22:40:00,
2013-02-22 18:45:00,78.6,72.0,30.03,East,83,5.0,12.0,80,0.00,,,0.00,0.0,meteohub,2013-02-22 22:45:00,
2013-02-22 18:50:00,78.4,71.8,30.03,East,96,6.0,13.0,80,0.00,,,0.00,0.0,meteohub,2013-02-22 22:50:00,
2013-02-22 18:55:00,78.4,72.1,30.03,East,97,0.0,13.0,81,0.00,,,0.00,0.0,meteohub,2013-02-22 22:55:00,
2013-02-22 19:00:00,78.4,72.1,30.04,ESE,102,0.0,12.0,81,0.00,,,0.00,0.0,meteohub,2013-02-22 23:00:00,
2013-02-22 19:05:00,78.4,72.1,30.04,East,85,7.0,12.0,81,0.00,,,0.00,0.0,meteohub,2013-02-22 23:05:00,
2013-02-22 19:10:00,78.4,72.1,30.04,ENE,71,5.0,12.0,81,0.00,,,0.00,0.0,meteohub,2013-02-22 23:10:00,
2013-02-22 19:16:00,78.4,72.1,30.04,ESE,109,7.0,12.0,81,0.00,,,0.00,0.0,meteohub,2013-02-22 23:16:00,
2013-02-22 19:21:00,78.4,72.1,30.04,East,79,8.0,12.0,81,0.00,,,0.00,0.0,meteohub,2013-02-22 23:21:00,
2013-02-22 19:26:00,78.3,72.3,30.04,ENE,65,0.0,11.0,82,0.00,,,0.00,0.0,meteohub,2013-02-22 23:26:00,
2013-02-22 19:31:00,78.3,72.3,30.05,East,100,6.0,10.0,82,0.00,,,0.00,0.0,meteohub,2013-02-22 23:31:00,
2013-02-22 19:36:00,78.3,72.3,30.05,ENE,76,0.0,10.0,82,0.00,,,0.00,0.0,meteohub,2013-02-22 23:36:00,
2013-02-22 19:41:00,78.3,72.3,30.05,East,82,0.0,12.0,82,0.00,,,0.00,0.0,meteohub,2013-02-22 23:41:00,
2013-02-22 19:46:00,78.3,72.3,30.05,East,80,4.0,12.0,82,0.00,,,0.00,0.0,meteohub,2013-02-22 23:46:00,
2013-02-22 19:51:00,78.4,72.5,30.05,ENE,62,0.0,12.0,82,0.00,,,0.00,0.0,meteohub,2013-02-22 23:51:00,
2013-02-22 19:56:00,78.4,72.5,30.05,East,80,7.0,11.0,82,0.00,,,0.00,0.0,meteohub,2013-02-22 23:56:00,
2013-02-22 20:01:00,78.3,72.7,30.05,ENE,58,0.0,12.0,83,0.00,,,0.00,0.0,meteohub,2013-02-23 00:01:00,
2013-02-22 20:06:00,78.3,72.3,30.05,East,88,7.0,12.0,82,0.00,,,0.00,0.0,meteohub,2013-02-23 00:06:00,
2013-02-22 20:11:00,78.1,72.1,30.05,ENE,73,0.0,12.0,82,0.00,,,0.00,0.0,meteohub,2013-02-23 00:11:00,
2013-02-22 20:17:00,78.1,72.1,30.06,ENE,65,0.0,11.0,82,0.00,,,0.00,0.0,meteohub,2013-02-23 00:17:00,
2013-02-22 20:21:00,78.1,72.1,30.06,ENE,58,5.0,12.0,82,0.00,,,0.00,0.0,meteohub,2013-02-23 00:21:00,
2013-02-22 20:27:00,78.1,72.5,30.06,NE,52,0.0,12.0,83,0.00,,,0.00,0.0,meteohub,2013-02-23 00:27:00,
2013-02-22 20:31:00,78.1,72.5,30.06,East,95,0.0,10.0,83,0.00,,,0.00,0.0,meteohub,2013-02-23 00:31:00,
2013-02-22 20:36:00,78.1,72.5,30.06,ENE,61,6.0,11.0,83,0.00,,,0.00,0.0,meteohub,2013-02-23 00:36:00,
2013-02-22 20:42:00,78.1,72.5,30.06,East,80,6.0,11.0,83,0.00,,,0.00,0.0,meteohub,2013-02-23 00:42:00,
2013-02-22 20:47:00,77.9,72.3,30.07,ENE,75,5.0,11.0,83,0.00,,,0.00,0.0,meteohub,2013-02-23 00:47:00,
2013-02-22 20:52:00,77.9,72.3,30.07,East,79,0.0,11.0,83,0.00,,,0.00,0.0,meteohub,2013-02-23 00:52:00,
2013-02-22 20:57:00,77.9,72.3,30.07,ENE,58,0.0,11.0,83,0.00,,,0.00,0.0,meteohub,2013-02-23 00:57:00,
2013-02-22 21:02:00,77.9,72.3,30.08,East,95,6.0,11.0,83,0.00,,,0.00,0.0,meteohub,2013-02-23 01:02:00,
2013-02-22 21:07:00,77.9,72.3,30.08,NNE,28,1.0,12.0,83,0.00,,,0.00,0.0,meteohub,2013-02-23 01:07:00,
2013-02-22 21:12:00,77.9,72.3,30.08,NE,48,4.0,12.0,83,0.00,,,0.00,0.0,meteohub,2013-02-23 01:12:00,
2013-02-22 21:17:00,77.9,72.3,30.08,ENE,68,6.0,12.0,83,0.00,,,0.00,0.0,meteohub,2013-02-23 01:17:00,
2013-02-22 21:22:00,78.1,72.5,30.08,East,86,0.0,12.0,83,0.00,,,0.00,0.0,meteohub,2013-02-23 01:22:00,
2013-02-22 21:27:00,77.9,72.3,30.08,ENE,64,8.0,10.0,83,0.00,,,0.00,0.0,meteohub,2013-02-23 01:27:00,
2013-02-22 21:32:00,77.9,72.3,30.09,East,100,0.0,13.0,83,0.00,,,0.00,0.0,meteohub,2013-02-23 01:32:00,
2013-02-22 21:37:00,77.7,72.5,30.09,East,95,0.0,13.0,84,0.00,,,0.00,0.0,meteohub,2013-02-23 01:37:00,
2013-02-22 21:42:00,77.4,72.1,30.09,East,95,6.0,13.0,84,0.00,,,0.00,0.0,meteohub,2013-02-23 01:42:00,
2013-02-22 21:47:00,77.4,72.1,30.09,ENE,73,6.0,9.0,84,0.00,,,0.00,0.0,meteohub,2013-02-23 01:47:00,
2013-02-22 21:52:00,77.4,72.1,30.09,ESE,106,0.0,9.0,84,0.00,,,0.00,0.0,meteohub,2013-02-23 01:52:00,
2013-02-22 21:57:00,77.4,72.1,30.09,NE,34,2.0,9.0,84,0.00,,,0.00,0.0,meteohub,2013-02-23 01:57:00,
2013-02-22 22:02:00,77.2,72.0,30.09,East,83,0.0,12.0,84,0.00,,,0.00,0.0,meteohub,2013-02-23 02:02:00,
2013-02-22 22:07:00,77.2,72.0,30.09,ENE,62,10.0,12.0,84,0.00,,,0.00,0.0,meteohub,2013-02-23 02:07:00,
2013-02-22 22:12:00,77.4,72.1,30.09,NE,51,11.0,12.0,84,0.00,,,0.00,0.0,meteohub,2013-02-23 02:12:00,
2013-02-22 22:17:00,77.4,72.1,30.10,ENE,61,6.0,12.0,84,0.00,,,0.00,0.0,meteohub,2013-02-23 02:17:00,
2013-02-22 22:23:00,77.2,72.0,30.10,ENE,65,0.0,12.0,84,0.00,,,0.00,0.0,meteohub,2013-02-23 02:23:00,
2013-02-22 22:28:00,77.2,72.0,30.10,ENE,68,0.0,11.0,84,0.00,,,0.00,0.0,meteohub,2013-02-23 02:28:00,
2013-02-22 22:33:00,77.2,71.6,30.10,ENE,76,0.0,8.0,83,0.00,,,0.00,0.0,meteohub,2013-02-23 02:33:00,
2013-02-22 22:38:00,77.2,71.6,30.10,ENE,68,2.0,9.0,83,0.00,,,0.00,0.0,meteohub,2013-02-23 02:38:00,
2013-02-22 22:43:00,77.2,72.0,30.09,ENE,61,0.0,9.0,84,0.00,,,0.00,0.0,meteohub,2013-02-23 02:43:00,
2013-02-22 22:48:00,77.2,72.0,30.09,ENE,72,0.0,9.0,84,0.00,,,0.00,0.0,meteohub,2013-02-23 02:48:00,
2013-02-22 22:53:00,77.2,72.0,30.09,NE,48,0.0,8.0,84,0.00,,,0.00,0.0,meteohub,2013-02-23 02:53:00,
2013-02-22 22:58:00,77.2,72.0,30.09,ENE,68,0.0,8.0,84,0.00,,,0.00,0.0,meteohub,2013-02-23 02:58:00,
2013-02-22 23:03:00,77.2,72.0,30.09,East,85,0.0,8.0,84,0.00,,,0.00,0.0,meteohub,2013-02-23 03:03:00,
2013-02-22 23:08:00,77.0,71.8,30.09,ENE,68,5.0,6.0,84,0.00,,,0.00,0.0,meteohub,2013-02-23 03:08:00,
2013-02-22 23:13:00,77.0,71.8,30.09,ENE,76,5.0,11.0,84,0.00,,,0.00,0.0,meteohub,2013-02-23 03:13:00,
2013-02-22 23:18:00,77.0,71.8,30.09,ENE,72,0.0,11.0,84,0.00,,,0.00,0.0,meteohub,2013-02-23 03:18:00,
2013-02-22 23:23:00,77.0,71.8,30.09,ENE,73,0.0,11.0,84,0.00,,,0.00,0.0,meteohub,2013-02-23 03:23:00,
2013-02-22 23:28:00,77.0,71.8,30.09,NE,47,0.0,11.0,84,0.00,,,0.00,0.0,meteohub,2013-02-23 03:28:00,
2013-02-22 23:33:00,77.0,71.8,30.09,ENE,73,3.0,7.0,84,0.00,,,0.00,0.0,meteohub,2013-02-23 03:33:00,
2013-02-22 23:38:00,77.0,71.8,30.09,NE,38,4.0,9.0,84,0.00,,,0.00,0.0,meteohub,2013-02-23 03:38:00,
2013-02-22 23:43:00,77.0,71.8,30.09,ENE,61,0.0,9.0,84,0.00,,,0.00,0.0,meteohub,2013-02-23 03:43:00,
2013-02-22 23:48:00,77.0,71.8,30.09,ENE,59,0.0,9.0,84,0.00,,,0.00,0.0,meteohub,2013-02-23 03:48:00,
2013-02-22 23:53:00,77.0,71.8,30.09,NE,35,0.0,8.0,84,0.00,,,0.00,0.0,meteohub,2013-02-23 03:53:00,
2013-02-22 23:58:00,77.0,72.1,30.09,ESE,113,6.0,8.0,85,0.00,,,0.00,0.0,meteohub,2013-02-23 03:58:00,